aviador You're here:

LFKS Decoded Metar

SOLENZARA in CORSE ISL.
Report Time2018-07-18 20:00:00
UTC Time2018-07-18 20:12:15
Flight Rules vfr VFR
WindVRB at 03 kt
Visibility9999 m
Phenomena:N/A
Clouds:N/A
Expected CloudBase > 1,600 ft AGL from Temp-Dew spread
CeilingNone
Temp25°C (ISA +10)
Dew Point21°C (79% RH)
QNH1013 hPa
Density Alt1,575 ft
Elevation72 ft
Report Wrong Elevation
Raw Report
METAR LFKS 182000Z AUTO VRB03KT CAVOK 25/21 Q1013=

Extra information for LFKS:More info

Metar Taf Metar & Taf Last 4 Metars F.Rules Stats Wind Profile Meteogram Temp Stats Airport Information Weather charts Add Link Nearby VenuesMetar ALERT Operation Metar Decoded Social comments